sensor_id;sensor_type;location;lat;lon;timestamp;pressure;altitude;pressure_sealevel;temperature;humidity
59190;BME280;50749;51.636;4.948;2022-07-29T00:00:47;101769.75;;;22.42;44.95
59190;BME280;50749;51.636;4.948;2022-07-29T00:03:13;101770.56;;;22.43;44.50
59190;BME280;50749;51.636;4.948;2022-07-29T00:05:40;101766.16;;;22.42;45.02
59190;BME280;50749;51.636;4.948;2022-07-29T00:08:07;101768.16;;;22.41;45.08
59190;BME280;50749;51.636;4.948;2022-07-29T00:10:32;101759.00;;;22.41;44.65
59190;BME280;50749;51.636;4.948;2022-07-29T00:12:59;101766.16;;;22.42;44.57
59190;BME280;50749;51.636;4.948;2022-07-29T00:15:24;101761.78;;;22.41;44.78
59190;BME280;50749;51.636;4.948;2022-07-29T00:17:50;101756.19;;;22.41;45.02
59190;BME280;50749;51.636;4.948;2022-07-29T00:20:16;101754.56;;;22.40;44.63
59190;BME280;50749;51.636;4.948;2022-07-29T00:22:41;101764.94;;;22.39;44.95
59190;BME280;50749;51.636;4.948;2022-07-29T00:25:08;101758.53;;;22.39;45.03
59190;BME280;50749;51.636;4.948;2022-07-29T00:27:35;101756.94;;;22.38;44.63
59190;BME280;50749;51.636;4.948;2022-07-29T00:30:01;101749.00;;;22.40;45.13
59190;BME280;50749;51.636;4.948;2022-07-29T00:32:26;101755.75;;;22.39;45.14
59190;BME280;50749;51.636;4.948;2022-07-29T00:34:52;101745.78;;;22.38;44.87
59190;BME280;50749;51.636;4.948;2022-07-29T00:37:36;101746.59;;;22.38;45.00
59190;BME280;50749;51.636;4.948;2022-07-29T00:40:03;101750.53;;;22.37;44.78
59190;BME280;50749;51.636;4.948;2022-07-29T00:42:29;101744.97;;;22.37;45.22
59190;BME280;50749;51.636;4.948;2022-07-29T00:44:54;101746.94;;;22.37;44.80
59190;BME280;50749;51.636;4.948;2022-07-29T00:47:20;101746.16;;;22.36;44.89
59190;BME280;50749;51.636;4.948;2022-07-29T00:49:46;101746.59;;;22.38;44.65
59190;BME280;50749;51.636;4.948;2022-07-29T00:52:12;101736.19;;;22.35;44.79
59190;BME280;50749;51.636;4.948;2022-07-29T00:54:39;101736.97;;;22.36;44.95
59190;BME280;50749;51.636;4.948;2022-07-29T00:57:06;101728.63;;;22.36;44.93
59190;BME280;50749;51.636;4.948;2022-07-29T00:59:33;101731.41;;;22.36;44.89
59190;BME280;50749;51.636;4.948;2022-07-29T01:01:59;101729.38;;;22.33;45.31
59190;BME280;50749;51.636;4.948;2022-07-29T01:04:25;101723.88;;;22.36;44.91
59190;BME280;50749;51.636;4.948;2022-07-29T01:06:51;101725.81;;;22.36;44.81
59190;BME280;50749;51.636;4.948;2022-07-29T01:09:18;101724.22;;;22.35;44.99
59190;BME280;50749;51.636;4.948;2022-07-29T01:11:45;101725.81;;;22.36;44.86
59190;BME280;50749;51.636;4.948;2022-07-29T01:14:13;101725.03;;;22.35;44.88
59190;BME280;50749;51.636;4.948;2022-07-29T01:16:46;101724.22;;;22.35;44.89
59190;BME280;50749;51.636;4.948;2022-07-29T01:22:26;101722.59;;;22.34;45.19
59190;BME280;50749;51.636;4.948;2022-07-29T01:30:51;101733.31;;;22.32;45.43
59190;BME280;50749;51.636;4.948;2022-07-29T01:33:20;101740.50;;;22.33;45.01
59190;BME280;50749;51.636;4.948;2022-07-29T01:36:10;101732.53;;;22.31;45.28
59190;BME280;50749;51.636;4.948;2022-07-29T01:38:39;101736.09;;;22.32;45.17
59190;BME280;50749;51.636;4.948;2022-07-29T01:41:12;101734.47;;;22.31;45.47
59190;BME280;50749;51.636;4.948;2022-07-29T01:43:51;101724.53;;;22.30;45.33
59190;BME280;50749;51.636;4.948;2022-07-29T01:46:23;101722.53;;;22.30;45.43
59190;BME280;50749;51.636;4.948;2022-07-29T01:48:59;101723.34;;;22.31;45.49
59190;BME280;50749;51.636;4.948;2022-07-29T01:51:47;101720.56;;;22.31;45.46
59190;BME280;50749;51.636;4.948;2022-07-29T01:54:24;101723.34;;;22.31;45.39
59190;BME280;50749;51.636;4.948;2022-07-29T01:56:53;101718.13;;;22.29;45.12
59190;BME280;50749;51.636;4.948;2022-07-29T01:59:21;101709.78;;;22.29;45.18
59190;BME280;50749;51.636;4.948;2022-07-29T02:01:50;101711.78;;;22.29;45.25
59190;BME280;50749;51.636;4.948;2022-07-29T02:04:19;101704.56;;;22.27;45.19
59190;BME280;50749;51.636;4.948;2022-07-29T02:06:47;101711.78;;;22.29;45.31
59190;BME280;50749;51.636;4.948;2022-07-29T02:09:15;101710.97;;;22.28;45.61
59190;BME280;50749;51.636;4.948;2022-07-29T02:11:47;101702.63;;;22.28;45.70
59190;BME280;50749;51.636;4.948;2022-07-29T02:14:14;101708.97;;;22.29;45.16
59190;BME280;50749;51.636;4.948;2022-07-29T02:16:41;101701.78;;;22.27;45.20
59190;BME280;50749;51.636;4.948;2022-07-29T02:19:08;101689.81;;;22.27;45.69
59190;BME280;50749;51.636;4.948;2022-07-29T02:21:35;101695.38;;;22.27;45.81
59190;BME280;50749;51.636;4.948;2022-07-29T02:24:02;101689.03;;;22.26;45.74
59190;BME280;50749;51.636;4.948;2022-07-29T02:26:30;101683.81;;;22.25;45.32
59190;BME280;50749;51.636;4.948;2022-07-29T02:28:58;101691.00;;;22.26;45.74
59190;BME280;50749;51.636;4.948;2022-07-29T02:31:30;101685.81;;;22.24;45.74
59190;BME280;50749;51.636;4.948;2022-07-29T02:33:58;101689.03;;;22.26;45.60
59190;BME280;50749;51.636;4.948;2022-07-29T02:36:25;101688.59;;;22.24;45.93
59190;BME280;50749;51.636;4.948;2022-07-29T02:38:52;101686.97;;;22.23;45.70
59190;BME280;50749;51.636;4.948;2022-07-29T02:41:35;101678.63;;;22.23;45.36
59190;BME280;50749;51.636;4.948;2022-07-29T02:44:20;101686.97;;;22.23;45.93
59190;BME280;50749;51.636;4.948;2022-07-29T02:46:50;101688.13;;;22.22;45.54
59190;BME280;50749;51.636;4.948;2022-07-29T02:51:53;101695.69;;;22.22;45.71
59190;BME280;50749;51.636;4.948;2022-07-29T02:54:26;101690.47;;;22.20;46.00
59190;BME280;50749;51.636;4.948;2022-07-29T02:56:56;101690.47;;;22.20;45.70
59190;BME280;50749;51.636;4.948;2022-07-29T02:59:26;101682.50;;;22.19;45.87
59190;BME280;50749;51.636;4.948;2022-07-29T03:01:54;101683.75;;;22.21;45.79
59190;BME280;50749;51.636;4.948;2022-07-29T03:04:21;101684.91;;;22.20;45.61
59190;BME280;50749;51.636;4.948;2022-07-29T03:06:50;101678.53;;;22.20;45.87
59190;BME280;50749;51.636;4.948;2022-07-29T03:09:18;101682.50;;;22.19;46.03
59190;BME280;50749;51.636;4.948;2022-07-29T03:11:44;101688.88;;;22.19;45.86
59190;BME280;50749;51.636;4.948;2022-07-29T03:14:11;101685.28;;;22.19;45.86
59190;BME280;50749;51.636;4.948;2022-07-29T03:16:37;101685.28;;;22.19;45.87
59190;BME280;50749;51.636;4.948;2022-07-29T03:19:03;101683.31;;;22.19;45.71
59190;BME280;50749;51.636;4.948;2022-07-29T03:21:30;101681.69;;;22.18;45.58
59190;BME280;50749;51.636;4.948;2022-07-29T03:23:56;101678.91;;;22.18;45.87
59190;BME280;50749;51.636;4.948;2022-07-29T03:26:22;101681.69;;;22.18;46.03
59190;BME280;50749;51.636;4.948;2022-07-29T03:28:48;101681.69;;;22.18;46.05
59190;BME280;50749;51.636;4.948;2022-07-29T03:31:13;101680.91;;;22.18;45.67
59190;BME280;50749;51.636;4.948;2022-07-29T03:33:39;101681.69;;;22.18;46.12
59190;BME280;50749;51.636;4.948;2022-07-29T03:36:05;101683.69;;;22.18;45.72
59190;BME280;50749;51.636;4.948;2022-07-29T03:38:33;101677.28;;;22.17;45.64
59190;BME280;50749;51.636;4.948;2022-07-29T03:41:04;101685.66;;;22.17;46.17
59190;BME280;50749;51.636;4.948;2022-07-29T03:43:34;101678.47;;;22.16;45.64
59190;BME280;50749;51.636;4.948;2022-07-29T03:46:01;101683.69;;;22.18;46.14
59190;BME280;50749;51.636;4.948;2022-07-29T03:48:30;101681.69;;;22.18;46.24
59190;BME280;50749;51.636;4.948;2022-07-29T03:50:58;101680.06;;;22.17;46.02
59190;BME280;50749;51.636;4.948;2022-07-29T03:53:24;101677.69;;;22.16;45.92
59190;BME280;50749;51.636;4.948;2022-07-29T03:55:54;101684.84;;;22.17;46.15
59190;BME280;50749;51.636;4.948;2022-07-29T03:58:21;101678.84;;;22.15;45.74
59190;BME280;50749;51.636;4.948;2022-07-29T04:00:48;101688.00;;;22.15;45.89
59190;BME280;50749;51.636;4.948;2022-07-29T04:03:14;101681.63;;;22.15;46.06
59190;BME280;50749;51.636;4.948;2022-07-29T04:05:40;101688.00;;;22.15;45.92
59190;BME280;50749;51.636;4.948;2022-07-29T04:08:05;101678.06;;;22.14;46.13
59190;BME280;50749;51.636;4.948;2022-07-29T04:10:31;101687.19;;;22.15;45.95
59190;BME280;50749;51.636;4.948;2022-07-29T04:12:59;101686.41;;;22.14;45.71
59190;BME280;50749;51.636;4.948;2022-07-29T04:15:25;101689.19;;;22.14;46.24
59190;BME280;50749;51.636;4.948;2022-07-29T04:17:51;101687.19;;;22.15;46.12
59190;BME280;50749;51.636;4.948;2022-07-29T04:20:17;101686.75;;;22.13;45.91
59190;BME280;50749;51.636;4.948;2022-07-29T04:22:42;101694.75;;;22.14;45.68
59190;BME280;50749;51.636;4.948;2022-07-29T04:25:08;101694.28;;;22.12;46.24
59190;BME280;50749;51.636;4.948;2022-07-29T04:27:34;101698.69;;;22.13;46.00
59190;BME280;50749;51.636;4.948;2022-07-29T04:30:00;101690.34;;;22.13;45.76
59190;BME280;50749;51.636;4.948;2022-07-29T04:32:25;101694.75;;;22.14;45.82
59190;BME280;50749;51.636;4.948;2022-07-29T04:34:52;101691.97;;;22.14;46.14
59190;BME280;50749;51.636;4.948;2022-07-29T04:37:18;101694.75;;;22.14;46.37
59190;BME280;50749;51.636;4.948;2022-07-29T04:39:44;101691.59;;;22.16;46.59
59190;BME280;50749;51.636;4.948;2022-07-29T04:42:09;101690.84;;;22.19;46.25
59190;BME280;50749;51.636;4.948;2022-07-29T04:44:35;101683.31;;;22.19;46.40
59190;BME280;50749;51.636;4.948;2022-07-29T04:47:01;101684.91;;;22.20;46.15
59190;BME280;50749;51.636;4.948;2022-07-29T04:49:27;101690.47;;;22.20;46.39
59190;BME280;50749;51.636;4.948;2022-07-29T04:51:53;101680.53;;;22.19;46.14
59190;BME280;50749;51.636;4.948;2022-07-29T04:54:18;101690.78;;;22.15;46.78
59190;BME280;50749;51.636;4.948;2022-07-29T04:56:44;101683.25;;;22.16;46.40
59190;BME280;50749;51.636;4.948;2022-07-29T04:59:11;101687.19;;;22.15;46.92
59190;BME280;50749;51.636;4.948;2022-07-29T05:01:37;101689.97;;;22.15;46.70
59190;BME280;50749;51.636;4.948;2022-07-29T05:04:03;101699.97;;;22.16;46.71
59190;BME280;50749;51.636;4.948;2022-07-29T05:06:29;101694.75;;;22.14;46.88
59190;BME280;50749;51.636;4.948;2022-07-29T05:08:54;101695.56;;;22.15;46.72
59190;BME280;50749;51.636;4.948;2022-07-29T05:11:20;101694.41;;;22.16;46.94
59190;BME280;50749;51.636;4.948;2022-07-29T05:13:46;101685.22;;;22.15;46.66
59190;BME280;50749;51.636;4.948;2022-07-29T05:16:11;101688.00;;;22.15;47.14
59190;BME280;50749;51.636;4.948;2022-07-29T05:18:38;101691.59;;;22.16;46.66
59190;BME280;50749;51.636;4.948;2022-07-29T05:21:04;101697.97;;;22.16;46.90
59190;BME280;50749;51.636;4.948;2022-07-29T05:23:30;101691.59;;;22.16;46.54
59190;BME280;50749;51.636;4.948;2022-07-29T05:25:56;101690.78;;;22.15;46.96
59190;BME280;50749;51.636;4.948;2022-07-29T05:28:22;101701.91;;;22.15;46.98
59190;BME280;50749;51.636;4.948;2022-07-29T05:30:47;101706.31;;;22.16;47.14
59190;BME280;50749;51.636;4.948;2022-07-29T05:33:14;101713.50;;;22.17;46.52
59190;BME280;50749;51.636;4.948;2022-07-29T05:35:39;101715.13;;;22.18;46.78
59190;BME280;50749;51.636;4.948;2022-07-29T05:38:05;101704.78;;;22.19;46.93
59190;BME280;50749;51.636;4.948;2022-07-29T05:40:31;101704.41;;;22.20;47.13
59190;BME280;50749;51.636;4.948;2022-07-29T05:42:57;101713.94;;;22.19;46.92
59190;BME280;50749;51.636;4.948;2022-07-29T05:45:23;101719.06;;;22.17;47.01
59190;BME280;50749;51.636;4.948;2022-07-29T05:47:50;101720.97;;;22.13;47.09
59190;BME280;50749;51.636;4.948;2022-07-29T05:50:15;101728.38;;;22.05;47.14
59190;BME280;50749;51.636;4.948;2022-07-29T05:52:41;101732.25;;;22.01;47.24
59190;BME280;50749;51.636;4.948;2022-07-29T05:55:07;101729.91;;;22.03;46.79
59190;BME280;50749;51.636;4.948;2022-07-29T05:57:33;101732.69;;;22.03;47.04
59190;BME280;50749;51.636;4.948;2022-07-29T05:59:59;101741.47;;;22.05;46.88
59190;BME280;50749;51.636;4.948;2022-07-29T06:02:25;101742.66;;;22.04;47.03
59190;BME280;50749;51.636;4.948;2022-07-29T06:04:50;101743.91;;;22.06;46.38
59190;BME280;50749;51.636;4.948;2022-07-29T06:07:16;101751.47;;;22.06;46.41
59190;BME280;50749;51.636;4.948;2022-07-29T06:09:42;101750.63;;;22.05;46.68
59190;BME280;50749;51.636;4.948;2022-07-29T06:12:08;101760.97;;;22.05;46.58
59190;BME280;50749;51.636;4.948;2022-07-29T06:14:34;101757.03;;;22.06;46.89
59190;BME280;50749;51.636;4.948;2022-07-29T06:17:01;101745.44;;;22.04;46.67
59190;BME280;50749;51.636;4.948;2022-07-29T06:19:27;101743.47;;;22.04;46.62
59190;BME280;50749;51.636;4.948;2022-07-29T06:21:53;101746.63;;;22.03;46.43
59190;BME280;50749;51.636;4.948;2022-07-29T06:24:19;101738.28;;;22.03;46.40
59190;BME280;50749;51.636;4.948;2022-07-29T06:26:44;101739.44;;;22.02;46.82
59190;BME280;50749;51.636;4.948;2022-07-29T06:29:10;101735.47;;;22.03;46.48
59190;BME280;50749;51.636;4.948;2022-07-29T06:31:36;101733.84;;;22.02;46.83
59190;BME280;50749;51.636;4.948;2022-07-29T06:34:03;101736.66;;;22.02;46.70
59190;BME280;50749;51.636;4.948;2022-07-29T06:36:29;101738.63;;;22.01;46.90
59190;BME280;50749;51.636;4.948;2022-07-29T06:38:55;101738.63;;;22.01;46.44
59190;BME280;50749;51.636;4.948;2022-07-29T06:41:21;101743.03;;;22.02;46.65
59190;BME280;50749;51.636;4.948;2022-07-29T06:43:48;101743.03;;;22.02;46.55
59190;BME280;50749;51.636;4.948;2022-07-29T06:46:15;101729.91;;;22.03;46.48
59190;BME280;50749;51.636;4.948;2022-07-29T06:48:45;101731.50;;;22.04;46.90
59190;BME280;50749;51.636;4.948;2022-07-29T06:51:11;101743.47;;;22.04;46.48
59190;BME280;50749;51.636;4.948;2022-07-29T06:53:38;101749.47;;;22.06;46.82
59190;BME280;50749;51.636;4.948;2022-07-29T06:56:05;101742.66;;;22.04;46.78
59190;BME280;50749;51.636;4.948;2022-07-29T06:58:31;101745.91;;;22.06;47.11
59190;BME280;50749;51.636;4.948;2022-07-29T07:01:00;101748.69;;;22.06;46.53
59190;BME280;50749;51.636;4.948;2022-07-29T07:03:25;101751.09;;;22.07;46.41
59190;BME280;50749;51.636;4.948;2022-07-29T07:05:53;101757.91;;;22.10;46.85
59190;BME280;50749;51.636;4.948;2022-07-29T07:08:20;101759.16;;;22.13;46.84
59190;BME280;50749;51.636;4.948;2022-07-29T07:10:47;101759.22;;;22.16;46.42
59190;BME280;50749;51.636;4.948;2022-07-29T07:13:13;101767.22;;;22.18;46.45
59190;BME280;50749;51.636;4.948;2022-07-29T07:15:40;101764.09;;;22.19;46.82
59190;BME280;50749;51.636;4.948;2022-07-29T07:18:06;101767.66;;;22.20;46.39
59190;BME280;50749;51.636;4.948;2022-07-29T07:20:36;101758.94;;;22.21;46.58
59190;BME280;50749;51.636;4.948;2022-07-29T07:23:02;101765.31;;;22.22;46.51
59190;BME280;50749;51.636;4.948;2022-07-29T07:25:27;101768.91;;;22.22;46.49
59190;BME280;50749;51.636;4.948;2022-07-29T07:27:53;101771.69;;;22.22;46.83
59190;BME280;50749;51.636;4.948;2022-07-29T07:30:19;101774.47;;;22.22;46.82
59190;BME280;50749;51.636;4.948;2022-07-29T07:32:45;101782.03;;;22.22;46.72
59190;BME280;50749;51.636;4.948;2022-07-29T07:35:10;101781.22;;;22.21;47.00
59190;BME280;50749;51.636;4.948;2022-07-29T07:37:37;101782.81;;;22.22;46.82
59190;BME280;50749;51.636;4.948;2022-07-29T07:40:07;101790.91;;;22.27;47.24
59190;BME280;50749;51.636;4.948;2022-07-29T07:42:33;101785.81;;;22.30;47.14
59190;BME280;50749;51.636;4.948;2022-07-29T07:44:59;101781.41;;;22.29;46.99
59190;BME280;50749;51.636;4.948;2022-07-29T07:47:25;101777.81;;;22.28;47.13
59190;BME280;50749;51.636;4.948;2022-07-29T07:49:52;101767.91;;;22.31;46.59
59190;BME280;50749;51.636;4.948;2022-07-29T07:52:20;101765.59;;;22.33;46.78
59190;BME280;50749;51.636;4.948;2022-07-29T07:54:46;101756.41;;;22.32;46.74
59190;BME280;50749;51.636;4.948;2022-07-29T07:57:12;101753.69;;;22.36;46.58
59190;BME280;50749;51.636;4.948;2022-07-29T07:59:39;101760.88;;;22.37;46.71
59190;BME280;50749;51.636;4.948;2022-07-29T08:02:05;101759.72;;;22.38;46.90
59190;BME280;50749;51.636;4.948;2022-07-29T08:04:31;101759.00;;;22.41;46.71
59190;BME280;50749;51.636;4.948;2022-07-29T08:06:58;101761.38;;;22.42;46.78
59190;BME280;50749;51.636;4.948;2022-07-29T08:09:25;101758.22;;;22.44;46.49
59190;BME280;50749;51.636;4.948;2022-07-29T08:11:51;101758.69;;;22.46;46.93
59190;BME280;50749;51.636;4.948;2022-07-29T08:14:17;101764.25;;;22.46;46.98
59190;BME280;50749;51.636;4.948;2022-07-29T08:16:43;101764.69;;;22.48;47.28
59190;BME280;50749;51.636;4.948;2022-07-29T08:19:09;101767.13;;;22.50;46.80
59190;BME280;50749;51.636;4.948;2022-07-29T08:21:35;101769.16;;;22.53;46.48
59190;BME280;50749;51.636;4.948;2022-07-29T08:24:01;101763.59;;;22.53;46.99
59190;BME280;50749;51.636;4.948;2022-07-29T08:26:46;101768.34;;;22.52;46.67
59190;BME280;50749;51.636;4.948;2022-07-29T08:29:12;101765.19;;;22.54;46.95
59190;BME280;50749;51.636;4.948;2022-07-29T08:31:38;101757.28;;;22.56;47.04
59190;BME280;50749;51.636;4.948;2022-07-29T08:34:05;101760.16;;;22.59;46.68
59190;BME280;50749;51.636;4.948;2022-07-29T08:36:32;101764.53;;;22.60;46.69
59190;BME280;50749;51.636;4.948;2022-07-29T08:38:58;101763.38;;;22.61;46.83
59190;BME280;50749;51.636;4.948;2022-07-29T08:41:24;101766.16;;;22.61;46.93
59190;BME280;50749;51.636;4.948;2022-07-29T08:43:50;101767.75;;;22.62;46.49
59190;BME280;50749;51.636;4.948;2022-07-29T08:46:18;101767.75;;;22.62;46.65
59190;BME280;50749;51.636;4.948;2022-07-29T08:48:44;101766.22;;;22.65;46.48
59190;BME280;50749;51.636;4.948;2022-07-29T08:51:15;101770.22;;;22.68;46.71
59190;BME280;50749;51.636;4.948;2022-07-29T08:53:42;101763.13;;;22.70;46.92
59190;BME280;50749;51.636;4.948;2022-07-29T08:56:13;101769.50;;;22.71;46.53
59190;BME280;50749;51.636;4.948;2022-07-29T08:58:39;101774.78;;;22.76;46.85
59190;BME280;50749;51.636;4.948;2022-07-29T09:01:06;101773.66;;;22.80;46.72
59190;BME280;50749;51.636;4.948;2022-07-29T09:03:35;101773.78;;;22.88;46.46
59190;BME280;50749;51.636;4.948;2022-07-29T09:06:02;101781.84;;;22.93;46.47
59190;BME280;50749;51.636;4.948;2022-07-29T09:08:30;101772.38;;;22.97;46.51
59190;BME280;50749;51.636;4.948;2022-07-29T09:10:57;101777.66;;;23.03;46.35
59190;BME280;50749;51.636;4.948;2022-07-29T09:13:23;101766.59;;;23.06;46.06
59190;BME280;50749;51.636;4.948;2022-07-29T09:15:50;101772.22;;;23.10;46.48
59190;BME280;50749;51.636;4.948;2022-07-29T09:21:02;101767.97;;;23.16;46.49
59190;BME280;50749;51.636;4.948;2022-07-29T09:24:10;101772.78;;;23.19;46.32
59190;BME280;50749;51.636;4.948;2022-07-29T09:26:42;101781.59;;;23.21;46.03
59190;BME280;50749;51.636;4.948;2022-07-29T09:29:14;101777.63;;;23.22;45.86
59190;BME280;50749;51.636;4.948;2022-07-29T09:31:47;101776.91;;;23.25;45.74
59190;BME280;50749;51.636;4.948;2022-07-29T09:34:16;101780.13;;;23.27;45.92
59190;BME280;50749;51.636;4.948;2022-07-29T09:39:08;101779.38;;;23.30;46.06
59190;BME280;50749;51.636;4.948;2022-07-29T09:41:53;101784.06;;;23.26;46.09
59190;BME280;50749;51.636;4.948;2022-07-29T09:44:20;101780.00;;;23.20;46.29
59190;BME280;50749;51.636;4.948;2022-07-29T09:46:57;101777.59;;;23.18;46.07
59190;BME280;50749;51.636;4.948;2022-07-29T09:49:24;101775.97;;;23.17;46.21
59190;BME280;50749;51.636;4.948;2022-07-29T09:52:20;101776.31;;;23.16;46.33
59190;BME280;50749;51.636;4.948;2022-07-29T09:54:45;101777.13;;;23.16;46.02
59190;BME280;50749;51.636;4.948;2022-07-29T09:57:26;101771.19;;;23.18;46.38
59190;BME280;50749;51.636;4.948;2022-07-29T10:00:00;101768.38;;;23.18;46.02
59190;BME280;50749;51.636;4.948;2022-07-29T10:02:28;101768.00;;;23.19;45.98
59190;BME280;50749;51.636;4.948;2022-07-29T10:04:55;101770.50;;;23.25;46.13
59190;BME280;50749;51.636;4.948;2022-07-29T10:07:21;101762.59;;;23.27;45.67
59190;BME280;50749;51.636;4.948;2022-07-29T10:09:55;101774.16;;;23.29;45.96
59190;BME280;50749;51.636;4.948;2022-07-29T10:12:21;101756.59;;;23.28;46.01
59190;BME280;50749;51.636;4.948;2022-07-29T10:14:48;101764.59;;;23.30;45.95
59190;BME280;50749;51.636;4.948;2022-07-29T10:17:15;101771.38;;;23.29;45.79
59190;BME280;50749;51.636;4.948;2022-07-29T10:19:41;101769.31;;;23.26;45.65
59190;BME280;50749;51.636;4.948;2022-07-29T10:22:09;101765.75;;;23.25;45.88
59190;BME280;50749;51.636;4.948;2022-07-29T10:24:36;101766.16;;;23.27;46.16
59190;BME280;50749;51.636;4.948;2022-07-29T10:27:04;101766.59;;;23.29;45.95
59190;BME280;50749;51.636;4.948;2022-07-29T10:29:31;101760.28;;;23.32;45.61
59190;BME280;50749;51.636;4.948;2022-07-29T10:43:20;101754.75;;;23.36;45.73
59190;BME280;50749;51.636;4.948;2022-07-29T10:45:49;101754.75;;;23.36;45.91
59190;BME280;50749;51.636;4.948;2022-07-29T10:48:20;101750.78;;;23.37;45.53
59190;BME280;50749;51.636;4.948;2022-07-29T10:53:18;101753.22;;;23.39;45.86
59190;BME280;50749;51.636;4.948;2022-07-29T10:55:44;101758.00;;;23.42;46.12
59190;BME280;50749;51.636;4.948;2022-07-29T10:58:20;101752.50;;;23.45;45.73
59190;BME280;50749;51.636;4.948;2022-07-29T11:00:47;101758.91;;;23.46;45.65
59190;BME280;50749;51.636;4.948;2022-07-29T11:04:05;101758.16;;;23.49;45.78
59190;BME280;50749;51.636;4.948;2022-07-29T11:06:24;101750.19;;;23.51;45.70
59190;BME280;50749;51.636;4.948;2022-07-29T11:09:18;101749.47;;;23.54;45.57
59190;BME280;50749;51.636;4.948;2022-07-29T11:11:44;101754.28;;;23.57;45.43
59190;BME280;50749;51.636;4.948;2022-07-29T11:14:10;101757.50;;;23.59;45.42
59190;BME280;50749;51.636;4.948;2022-07-29T11:17:05;101747.19;;;23.63;45.58
59190;BME280;50749;51.636;4.948;2022-07-29T11:19:33;101749.66;;;23.68;45.22
59190;BME280;50749;51.636;4.948;2022-07-29T11:21:59;101752.91;;;23.70;45.33
59190;BME280;50749;51.636;4.948;2022-07-29T11:24:29;101757.78;;;23.77;45.18
59190;BME280;50749;51.636;4.948;2022-07-29T11:30:00;101749.09;;;23.82;44.70
59190;BME280;50749;51.636;4.948;2022-07-29T11:32:37;101751.50;;;23.84;44.57
59190;BME280;50749;51.636;4.948;2022-07-29T11:35:22;101750.31;;;23.85;44.87
59190;BME280;50749;51.636;4.948;2022-07-29T11:38:26;101751.94;;;23.86;44.87
59190;BME280;50749;51.636;4.948;2022-07-29T11:47:03;101736.03;;;23.90;44.46
59190;BME280;50749;51.636;4.948;2022-07-29T11:49:04;101740.44;;;23.91;44.14
59190;BME280;50749;51.636;4.948;2022-07-29T11:51:31;101746.81;;;23.91;44.18
59190;BME280;50749;51.636;4.948;2022-07-29T11:53:57;101741.25;;;23.91;44.39
59190;BME280;50749;51.636;4.948;2022-07-29T11:56:25;101743.25;;;23.91;44.52
59190;BME280;50749;51.636;4.948;2022-07-29T11:59:05;101737.28;;;23.92;44.17
59190;BME280;50749;51.636;4.948;2022-07-29T12:01:32;101743.66;;;23.93;44.37
59190;BME280;50749;51.636;4.948;2022-07-29T12:04:07;101738.88;;;23.93;44.33
59190;BME280;50749;51.636;4.948;2022-07-29T12:06:34;101740.50;;;23.95;44.48
59190;BME280;50749;51.636;4.948;2022-07-29T12:09:00;101736.53;;;23.96;44.33
59190;BME280;50749;51.636;4.948;2022-07-29T12:11:26;101742.91;;;23.96;44.56
59190;BME280;50749;51.636;4.948;2022-07-29T12:13:52;101744.50;;;23.97;44.42
59190;BME280;50749;51.636;4.948;2022-07-29T12:16:19;101750.91;;;23.98;44.66
59190;BME280;50749;51.636;4.948;2022-07-29T12:18:59;101748.91;;;23.98;44.67
59190;BME280;50749;51.636;4.948;2022-07-29T12:21:25;101756.50;;;23.98;44.70
59190;BME280;50749;51.636;4.948;2022-07-29T12:23:53;101748.13;;;23.98;44.47
59190;BME280;50749;51.636;4.948;2022-07-29T12:26:20;101747.28;;;23.97;44.33
59190;BME280;50749;51.636;4.948;2022-07-29T12:28:46;101750.91;;;23.98;44.37
59190;BME280;50749;51.636;4.948;2022-07-29T12:31:16;101750.09;;;23.97;44.80
59190;BME280;50749;51.636;4.948;2022-07-29T12:33:42;101754.06;;;23.96;44.81
59190;BME280;50749;51.636;4.948;2022-07-29T12:36:08;101747.28;;;23.97;44.28
59190;BME280;50749;51.636;4.948;2022-07-29T12:38:35;101748.13;;;23.98;44.84
59190;BME280;50749;51.636;4.948;2022-07-29T12:41:01;101751.66;;;23.95;44.57
59190;BME280;50749;51.636;4.948;2022-07-29T12:43:27;101749.28;;;23.97;44.64
59190;BME280;50749;51.636;4.948;2022-07-29T12:45:55;101748.13;;;23.98;44.64
59190;BME280;50749;51.636;4.948;2022-07-29T12:51:02;101752.03;;;23.93;44.49
59190;BME280;50749;51.636;4.948;2022-07-29T12:53:28;101755.19;;;23.91;44.12
59190;BME280;50749;51.636;4.948;2022-07-29T12:55:55;101744.41;;;23.90;44.08
59190;BME280;50749;51.636;4.948;2022-07-29T12:58:39;101739.56;;;23.87;44.71
59190;BME280;50749;51.636;4.948;2022-07-29T13:01:15;101745.91;;;23.84;44.17
59190;BME280;50749;51.636;4.948;2022-07-29T13:06:39;101749.09;;;23.82;44.23
59190;BME280;50749;51.636;4.948;2022-07-29T13:09:09;101749.44;;;23.81;43.80
59190;BME280;50749;51.636;4.948;2022-07-29T13:11:43;101749.44;;;23.81;43.98
59190;BME280;50749;51.636;4.948;2022-07-29T13:14:29;101753.41;;;23.80;44.09
59190;BME280;50749;51.636;4.948;2022-07-29T13:17:20;101750.63;;;23.80;44.06
59190;BME280;50749;51.636;4.948;2022-07-29T13:20:04;101746.63;;;23.77;44.39
59190;BME280;50749;51.636;4.948;2022-07-29T13:22:30;101753.00;;;23.78;44.06
59190;BME280;50749;51.636;4.948;2022-07-29T13:24:57;101755.78;;;23.78;42.87
59190;BME280;50749;51.636;4.948;2022-07-29T13:27:25;101755.78;;;23.78;43.17
59190;BME280;50749;51.636;4.948;2022-07-29T13:29:52;101756.94;;;23.77;43.26
59190;BME280;50749;51.636;4.948;2022-07-29T13:32:19;101758.56;;;23.78;43.87
59190;BME280;50749;51.636;4.948;2022-07-29T13:34:45;101751.38;;;23.77;44.06
59190;BME280;50749;51.636;4.948;2022-07-29T13:37:11;101759.66;;;23.69;42.84
59190;BME280;50749;51.636;4.948;2022-07-29T13:39:37;101750.09;;;23.70;43.81
59190;BME280;50749;51.636;4.948;2022-07-29T13:42:06;101748.47;;;23.69;43.85